createdAt,value
2023-01-04T00:01:30.485Z,7.63
2023-01-04T00:03:56.883Z,9.20
2023-01-04T00:06:23.395Z,6.53
2023-01-04T00:08:49.797Z,8.13
2023-01-04T00:11:19.956Z,13.10
2023-01-04T00:13:48.467Z,10.77
2023-01-04T00:16:17.643Z,6.43
2023-01-04T00:18:44.705Z,7.05
2023-01-04T00:21:16.197Z,9.77
2023-01-04T00:23:44.892Z,14.18
2023-01-04T00:26:14.025Z,8.65
2023-01-04T00:28:41.056Z,8.38
2023-01-04T00:31:09.862Z,8.05
2023-01-04T00:33:36.605Z,6.25
2023-01-04T00:36:08.178Z,6.43
2023-01-04T00:38:35.162Z,6.75
2023-01-04T00:41:02.695Z,7.00
2023-01-04T00:43:29.092Z,6.28
2023-01-04T00:45:56.460Z,5.47
2023-01-04T00:48:23.062Z,7.13
2023-01-04T00:50:50.435Z,9.25
2023-01-04T00:53:18.227Z,8.63
2023-01-04T00:55:45.427Z,6.72
2023-01-04T00:58:12.480Z,6.57
2023-01-04T01:00:39.491Z,9.18
2023-01-04T01:03:07.034Z,3.55
2023-01-04T01:05:35.892Z,5.00
2023-01-04T01:08:23.369Z,8.88
2023-01-04T01:10:50.215Z,9.25
2023-01-04T01:13:16.751Z,12.65
2023-01-04T01:15:43.238Z,8.20
2023-01-04T01:18:09.627Z,10.20
2023-01-04T01:20:41.019Z,7.15
2023-01-04T01:23:07.482Z,7.30
2023-01-04T01:25:34.395Z,8.05
2023-01-04T01:28:00.748Z,5.20
2023-01-04T01:30:27.332Z,6.60
2023-01-04T01:32:53.682Z,14.38
2023-01-04T01:35:20.051Z,6.03
2023-01-04T01:37:46.394Z,7.68
2023-01-04T01:40:12.871Z,8.27
2023-01-04T01:42:39.252Z,6.05
2023-01-04T01:45:19.769Z,11.82
2023-01-04T01:47:50.440Z,10.85
2023-01-04T01:50:29.932Z,8.77
2023-01-04T01:53:00.259Z,10.20
2023-01-04T01:55:30.423Z,11.50
2023-01-04T01:57:58.583Z,11.63
2023-01-04T02:00:25.400Z,11.05
2023-01-04T02:03:07.459Z,9.98
2023-01-04T02:05:34.175Z,6.22
2023-01-04T02:08:02.745Z,9.60
2023-01-04T02:10:29.489Z,8.98
2023-01-04T02:12:55.906Z,9.85
2023-01-04T02:15:26.189Z,12.00
2023-01-04T02:18:07.950Z,9.85
2023-01-04T02:20:50.107Z,8.82
2023-01-04T02:23:37.627Z,7.47
2023-01-04T02:26:33.473Z,8.40
2023-01-04T02:29:29.180Z,7.10
2023-01-04T02:32:02.848Z,10.48
2023-01-04T02:34:45.445Z,9.02
2023-01-04T02:37:24.569Z,10.65
2023-01-04T02:40:28.615Z,8.38
2023-01-04T02:43:23.787Z,4.90
2023-01-04T02:46:01.889Z,8.18
2023-01-04T02:48:58.213Z,15.45
2023-01-04T02:51:34.442Z,9.90
2023-01-04T02:54:06.680Z,5.05
2023-01-04T02:57:09.953Z,6.03
2023-01-04T03:00:00.731Z,8.43
2023-01-04T03:03:04.121Z,5.40
2023-01-04T03:05:58.901Z,7.65
2023-01-04T03:08:37.742Z,9.20
2023-01-04T03:11:31.889Z,11.15
2023-01-04T03:14:04.058Z,9.60
2023-01-04T03:16:52.261Z,10.30
2023-01-04T03:19:41.254Z,8.00
2023-01-04T03:22:28.486Z,8.77
2023-01-04T03:25:14.603Z,6.75
2023-01-04T03:28:01.541Z,8.85
2023-01-04T03:30:48.720Z,10.38
2023-01-04T03:33:35.492Z,8.55
2023-01-04T03:36:26.950Z,9.20
2023-01-04T03:39:47.201Z,5.53
2023-01-04T03:42:41.683Z,7.55
2023-01-04T03:45:34.140Z,7.75
2023-01-04T03:48:19.070Z,6.22
2023-01-04T03:50:51.558Z,7.57
2023-01-04T03:53:19.267Z,7.07
2023-01-04T03:55:47.380Z,9.18
2023-01-04T03:58:14.349Z,7.28
2023-01-04T04:00:41.033Z,6.00
2023-01-04T04:03:08.317Z,8.20
2023-01-04T04:05:58.983Z,5.18
2023-01-04T04:08:28.708Z,3.35
2023-01-04T04:11:19.483Z,4.72
2023-01-04T04:13:49.645Z,3.13
2023-01-04T04:16:16.406Z,3.08
2023-01-04T04:18:43.355Z,1.50
2023-01-04T04:21:09.728Z,2.13
2023-01-04T04:23:36.163Z,3.25
2023-01-04T04:26:02.555Z,2.63
2023-01-04T04:28:28.873Z,3.58
2023-01-04T04:30:55.341Z,3.47
2023-01-04T04:33:21.732Z,1.05
2023-01-04T04:35:55.065Z,1.42
2023-01-04T04:38:22.060Z,2.90
2023-01-04T04:41:07.285Z,4.80
2023-01-04T04:43:34.476Z,3.10
2023-01-04T04:46:02.289Z,2.05
2023-01-04T04:48:28.884Z,2.53
2023-01-04T04:50:55.246Z,1.40
2023-01-04T04:53:21.616Z,1.48
2023-01-04T04:55:54.101Z,2.20
2023-01-04T04:58:20.787Z,2.53
2023-01-04T05:00:47.176Z,3.95
2023-01-04T05:03:13.684Z,2.13
2023-01-04T05:05:40.186Z,2.95
2023-01-04T05:08:06.584Z,1.55
2023-01-04T05:10:33.015Z,1.30
2023-01-04T05:12:59.575Z,0.85
2023-01-04T05:15:32.587Z,2.53
2023-01-04T05:17:59.014Z,2.13
2023-01-04T05:20:25.518Z,1.55
2023-01-04T05:22:52.040Z,0.75
2023-01-04T05:25:18.822Z,1.50
2023-01-04T05:27:45.528Z,2.40
2023-01-04T05:30:32.883Z,2.20
2023-01-04T05:32:59.385Z,1.70
2023-01-04T05:35:26.047Z,1.80
2023-01-04T05:37:52.373Z,1.27
2023-01-04T05:40:19.022Z,2.03
2023-01-04T05:42:45.355Z,6.20
2023-01-04T05:45:14.323Z,3.05
2023-01-04T05:47:41.147Z,1.88
2023-01-04T05:50:08.598Z,1.48
2023-01-04T05:52:35.250Z,1.15
2023-01-04T05:55:01.890Z,2.53
2023-01-04T05:57:28.336Z,1.33
2023-01-04T05:59:54.818Z,2.45
2023-01-04T06:02:27.659Z,1.48
2023-01-04T06:04:58.787Z,1.50
2023-01-04T06:07:27.281Z,1.75
2023-01-04T06:09:53.916Z,2.10
2023-01-04T06:12:20.702Z,2.10
2023-01-04T06:14:47.092Z,1.73
2023-01-04T06:17:13.785Z,0.55
2023-01-04T06:19:40.247Z,1.67
2023-01-04T06:22:07.357Z,1.35
2023-01-04T06:24:36.947Z,0.68
2023-01-04T06:27:04.034Z,1.60
2023-01-04T06:29:30.473Z,1.17
2023-01-04T06:31:56.990Z,1.13
2023-01-04T06:34:30.253Z,0.50
2023-01-04T06:36:57.439Z,1.50
2023-01-04T06:39:23.829Z,2.03
2023-01-04T06:41:50.257Z,1.90
2023-01-04T06:44:16.701Z,2.10
2023-01-04T06:46:43.255Z,2.45
2023-01-04T06:49:09.753Z,1.08
2023-01-04T06:51:36.223Z,1.45
2023-01-04T06:54:02.641Z,2.50
2023-01-04T06:56:30.814Z,2.15
2023-01-04T06:58:57.237Z,1.60
2023-01-04T07:01:23.755Z,0.68
2023-01-04T07:03:50.211Z,3.42
2023-01-04T07:06:16.759Z,2.47
2023-01-04T07:08:43.820Z,1.52
2023-01-04T07:11:10.283Z,0.75
2023-01-04T07:13:36.791Z,1.02
2023-01-04T07:16:03.358Z,0.85
2023-01-04T07:18:29.802Z,0.95
2023-01-04T07:20:56.267Z,1.60
2023-01-04T07:23:22.619Z,0.77
2023-01-04T07:25:49.033Z,0.85
2023-01-04T07:28:38.211Z,1.45
2023-01-04T07:31:08.526Z,1.10
2023-01-04T07:33:35.162Z,2.75
2023-01-04T07:36:06.018Z,2.78
2023-01-04T07:38:34.516Z,0.88
2023-01-04T07:41:01.046Z,1.70
2023-01-04T07:43:28.441Z,0.63
2023-01-04T07:45:55.349Z,0.38
2023-01-04T07:48:21.913Z,1.55
2023-01-04T07:50:49.883Z,0.40
2023-01-04T07:53:16.353Z,1.15
2023-01-04T07:55:42.706Z,2.10
2023-01-04T07:58:09.526Z,1.52
2023-01-04T08:00:35.926Z,1.55
2023-01-04T08:03:02.475Z,0.82
2023-01-04T08:05:32.505Z,1.15
2023-01-04T08:07:59.593Z,2.97
2023-01-04T08:10:26.007Z,1.02
2023-01-04T08:12:52.441Z,0.38
2023-01-04T08:15:19.581Z,2.05
2023-01-04T08:17:45.948Z,0.17
2023-01-04T08:20:12.455Z,3.33
2023-01-04T08:22:38.889Z,0.80
2023-01-04T08:25:06.221Z,2.97
2023-01-04T08:27:33.185Z,0.75
2023-01-04T08:29:59.542Z,1.10
2023-01-04T08:32:26.235Z,2.22
2023-01-04T08:34:54.183Z,1.90
2023-01-04T08:37:20.723Z,0.98
2023-01-04T08:39:49.237Z,0.93
2023-01-04T08:42:24.724Z,1.58
2023-01-04T08:44:59.169Z,1.90
2023-01-04T08:47:26.933Z,1.70
2023-01-04T08:49:53.308Z,1.65
2023-01-04T08:52:21.720Z,2.38
2023-01-04T08:54:49.216Z,2.35
2023-01-04T08:57:18.986Z,1.58
2023-01-04T08:59:45.375Z,3.25
2023-01-04T09:02:21.118Z,2.88
2023-01-04T09:04:47.981Z,2.10
2023-01-04T09:07:14.824Z,2.75
2023-01-04T09:09:41.220Z,1.20
2023-01-04T09:12:07.605Z,3.25
2023-01-04T09:14:34.025Z,2.10
2023-01-04T09:17:00.379Z,1.95
2023-01-04T09:19:26.752Z,2.28
2023-01-04T09:21:53.159Z,0.60
2023-01-04T09:24:19.580Z,0.88
2023-01-04T09:26:47.574Z,0.85
2023-01-04T09:29:14.041Z,1.33
2023-01-04T09:31:40.569Z,0.85
2023-01-04T09:34:16.629Z,1.42
2023-01-04T09:36:44.890Z,1.02
2023-01-04T09:39:21.133Z,2.42
2023-01-04T09:42:03.989Z,2.85
2023-01-04T09:48:03.708Z,1.95
2023-01-04T09:50:40.695Z,1.00
2023-01-04T09:53:22.490Z,2.17
2023-01-04T09:55:52.370Z,2.08
2023-01-04T09:58:32.156Z,1.77
2023-01-04T10:01:04.894Z,1.25
2023-01-04T10:03:35.381Z,3.78
2023-01-04T10:06:03.129Z,1.30
2023-01-04T10:08:33.144Z,0.65
2023-01-04T10:11:02.729Z,3.08
2023-01-04T10:13:59.877Z,1.63
2023-01-04T10:17:12.035Z,2.95
2023-01-04T10:22:39.757Z,2.53
2023-01-04T10:25:20.451Z,2.95
2023-01-04T10:28:28.975Z,3.78
2023-01-04T10:31:38.420Z,4.32
2023-01-04T10:34:19.030Z,2.63
2023-01-04T10:36:47.572Z,4.00
2023-01-04T10:39:18.612Z,2.20
2023-01-04T10:41:56.733Z,3.42
2023-01-04T10:44:29.254Z,8.55
2023-01-04T10:47:39.626Z,3.22
2023-01-04T10:50:18.821Z,2.72
2023-01-04T10:52:56.019Z,3.45
2023-01-04T10:55:29.307Z,1.40
2023-01-04T10:58:37.235Z,1.60
2023-01-04T11:01:10.678Z,3.05
2023-01-04T11:03:41.810Z,5.80
2023-01-04T11:06:08.982Z,3.38
2023-01-04T11:08:39.790Z,4.15
2023-01-04T11:11:12.246Z,2.70
2023-01-04T11:13:39.123Z,2.38
2023-01-04T11:16:06.613Z,4.28
2023-01-04T11:18:37.078Z,5.97
2023-01-04T11:21:12.302Z,2.65
2023-01-04T11:23:39.035Z,5.32
2023-01-04T11:26:25.370Z,2.33
2023-01-04T11:28:57.240Z,3.45
2023-01-04T11:31:36.148Z,4.10
2023-01-04T11:34:03.876Z,2.78
2023-01-04T11:36:47.515Z,2.33
2023-01-04T11:39:25.901Z,2.67
2023-01-04T11:42:03.419Z,4.05
2023-01-04T11:44:32.035Z,4.43
2023-01-04T11:47:23.328Z,4.65
2023-01-04T11:49:51.870Z,2.35
2023-01-04T11:52:35.565Z,2.17
2023-01-04T11:55:25.187Z,0.80
2023-01-04T11:58:10.044Z,1.83
2023-01-04T12:00:37.265Z,2.15
2023-01-04T12:03:19.935Z,3.22
2023-01-04T12:05:46.342Z,1.67
2023-01-04T12:08:30.565Z,2.00
2023-01-04T12:10:58.129Z,2.05
2023-01-04T12:13:24.757Z,2.78
2023-01-04T12:16:15.967Z,0.80
2023-01-04T12:18:43.874Z,1.27
2023-01-04T12:21:22.908Z,2.90
2023-01-04T12:23:50.899Z,4.55
2023-01-04T12:26:18.505Z,2.15
2023-01-04T12:29:12.506Z,3.45
2023-01-04T12:31:38.865Z,2.72
2023-01-04T12:34:24.060Z,3.13
2023-01-04T12:36:50.330Z,1.48
2023-01-04T12:39:16.855Z,1.27
2023-01-04T12:41:45.064Z,4.25
2023-01-04T12:44:36.306Z,2.80
2023-01-04T12:47:36.742Z,2.40
2023-01-04T12:50:07.289Z,4.47
2023-01-04T12:52:48.055Z,3.67
2023-01-04T12:55:31.967Z,1.35
2023-01-04T12:58:04.093Z,1.58
2023-01-04T13:00:51.474Z,3.50
2023-01-04T13:03:18.480Z,3.40
2023-01-04T13:06:06.078Z,1.10
2023-01-04T13:08:41.241Z,1.10
2023-01-04T13:11:27.750Z,1.73
2023-01-04T13:14:10.031Z,1.15
2023-01-04T13:16:50.657Z,3.20
2023-01-04T13:19:26.267Z,2.05
2023-01-04T13:21:54.055Z,1.35
2023-01-04T13:24:24.703Z,1.05
2023-01-04T13:26:52.327Z,0.40
2023-01-04T13:29:25.301Z,0.45
2023-01-04T13:32:00.878Z,2.17
2023-01-04T13:34:46.776Z,0.98
2023-01-04T13:37:19.103Z,0.80
2023-01-04T13:39:51.079Z,1.10
2023-01-04T13:42:30.713Z,0.30
2023-01-04T13:45:29.715Z,0.90
2023-01-04T13:48:00.005Z,0.52
2023-01-04T13:50:33.151Z,0.47
2023-01-04T13:53:07.479Z,0.47
2023-01-04T13:55:37.589Z,0.75
2023-01-04T13:58:07.067Z,1.27
2023-01-04T14:00:45.172Z,0.68
2023-01-04T14:03:26.273Z,0.93
2023-01-04T14:05:59.850Z,0.47
2023-01-04T14:08:51.424Z,0.50
2023-01-04T14:11:49.944Z,0.50
2023-01-04T14:14:30.790Z,0.60
2023-01-04T14:17:12.669Z,0.65
2023-01-04T14:19:46.809Z,1.38
2023-01-04T14:22:18.912Z,1.03
2023-01-04T14:27:36.554Z,0.75
2023-01-04T14:30:23.639Z,1.23
2023-01-04T14:33:13.262Z,1.52
2023-01-04T14:35:44.025Z,1.58
2023-01-04T14:38:17.742Z,0.32
2023-01-04T14:40:45.032Z,0.82
2023-01-04T14:43:35.143Z,0.30
2023-01-04T14:46:02.265Z,0.88
2023-01-04T14:48:31.691Z,1.45
2023-01-04T14:51:00.156Z,0.68
2023-01-04T14:53:27.253Z,0.50
2023-01-04T14:55:54.711Z,0.77
2023-01-04T14:58:21.653Z,1.45
2023-01-04T15:00:48.077Z,0.60
2023-01-04T15:03:14.613Z,2.50
2023-01-04T15:05:44.744Z,1.42
2023-01-04T15:08:11.881Z,1.30
2023-01-04T15:10:38.782Z,1.13
2023-01-04T15:13:05.238Z,1.55
2023-01-04T15:15:35.118Z,1.08
2023-01-04T15:18:01.903Z,1.98
2023-01-04T15:20:28.279Z,1.83
2023-01-04T15:22:54.692Z,2.05
2023-01-04T15:25:21.072Z,2.33
2023-01-04T15:27:47.441Z,2.33
2023-01-04T15:30:14.349Z,1.65
2023-01-04T15:32:41.075Z,1.00
2023-01-04T15:35:07.988Z,1.52
2023-01-04T15:37:34.431Z,2.80
2023-01-04T15:40:03.165Z,4.45
2023-01-04T15:42:48.499Z,3.38
2023-01-04T15:45:14.962Z,2.20
2023-01-04T15:47:41.362Z,3.45
2023-01-04T15:50:08.163Z,3.08
2023-01-04T15:52:34.617Z,3.92
2023-01-04T15:55:01.084Z,2.05
2023-01-04T15:57:27.501Z,2.53
2023-01-04T15:59:53.895Z,2.63
2023-01-04T16:02:20.359Z,2.90
2023-01-04T16:04:47.233Z,4.82
2023-01-04T16:07:13.658Z,8.38
2023-01-04T16:09:40.061Z,6.85
2023-01-04T16:12:25.671Z,5.82
2023-01-04T16:14:52.766Z,9.63
2023-01-04T16:17:19.445Z,7.95
2023-01-04T16:19:45.914Z,3.28
2023-01-04T16:22:12.312Z,6.47
2023-01-04T16:25:09.996Z,4.13
2023-01-04T16:27:28.463Z,1.98
2023-01-04T16:30:00.031Z,2.35
2023-01-04T16:32:26.530Z,4.30
2023-01-04T16:34:53.541Z,2.55
2023-01-04T16:37:20.235Z,2.72
2023-01-04T16:40:05.778Z,5.28
2023-01-04T16:42:33.061Z,2.33
2023-01-04T16:44:59.412Z,3.60
2023-01-04T16:47:25.854Z,3.13
2023-01-04T16:49:53.008Z,3.30
2023-01-04T16:52:19.408Z,2.55
2023-01-04T16:54:45.798Z,2.38
2023-01-04T16:57:12.147Z,3.10
2023-01-04T16:59:38.628Z,4.50
2023-01-04T17:02:05.119Z,3.30
2023-01-04T17:04:31.806Z,2.83
2023-01-04T17:06:58.373Z,3.90
2023-01-04T17:09:24.842Z,2.95
2023-01-04T17:14:43.412Z,2.45
2023-01-04T17:17:10.112Z,2.72
2023-01-04T17:19:36.635Z,3.97
2023-01-04T17:22:03.062Z,5.93
2023-01-04T17:24:29.428Z,3.35
2023-01-04T17:26:55.844Z,3.55
2023-01-04T17:29:22.235Z,5.18
2023-01-04T17:31:48.723Z,4.15
2023-01-04T17:34:22.545Z,6.28
2023-01-04T17:36:49.922Z,5.32
2023-01-04T17:39:16.303Z,7.40
2023-01-04T17:41:42.697Z,5.38
2023-01-04T17:44:10.032Z,10.90
2023-01-04T17:46:37.522Z,7.95
2023-01-04T17:49:22.035Z,7.65
2023-01-04T17:51:50.436Z,6.70
2023-01-04T17:54:16.862Z,8.95
2023-01-04T17:56:43.261Z,10.57
2023-01-04T17:59:11.765Z,8.00
2023-01-04T18:01:38.238Z,14.63
2023-01-04T18:04:04.768Z,12.52
2023-01-04T18:06:34.144Z,11.27
2023-01-04T18:09:01.961Z,13.05
2023-01-04T18:11:28.878Z,16.20
2023-01-04T18:13:55.292Z,11.77
2023-01-04T18:16:28.009Z,20.23
2023-01-04T18:18:56.346Z,11.90
2023-01-04T18:21:28.586Z,16.98
2023-01-04T18:27:19.050Z,22.33
2023-01-04T18:29:31.632Z,20.48
2023-01-04T18:31:58.086Z,14.57
2023-01-04T18:34:26.497Z,21.85
2023-01-04T18:36:53.101Z,17.67
2023-01-04T18:39:19.451Z,21.88
2023-01-04T18:41:46.135Z,22.27
2023-01-04T18:44:32.057Z,16.25
2023-01-04T18:46:59.055Z,20.05
2023-01-04T18:49:25.409Z,19.58
2023-01-04T18:51:51.846Z,20.33
2023-01-04T18:54:20.626Z,18.33
2023-01-04T18:56:47.486Z,22.40
2023-01-04T18:59:17.062Z,23.23
2023-01-04T19:01:44.019Z,23.25
2023-01-04T19:04:12.332Z,18.77
2023-01-04T19:06:40.420Z,18.02
2023-01-04T19:09:07.432Z,20.08
2023-01-04T19:11:35.046Z,22.35
2023-01-04T19:14:02.096Z,27.13
2023-01-04T19:16:31.164Z,21.27
2023-01-04T19:18:59.662Z,28.52
2023-01-04T19:21:26.280Z,25.00
2023-01-04T19:23:52.754Z,22.65
2023-01-04T19:26:19.475Z,20.52
2023-01-04T19:28:46.023Z,20.25
2023-01-04T19:31:13.157Z,28.00
2023-01-04T19:33:39.652Z,16.90
2023-01-04T19:36:11.470Z,18.80
2023-01-04T19:38:38.120Z,20.98
2023-01-04T19:41:05.655Z,18.65
2023-01-04T19:43:32.570Z,26.25
2023-01-04T19:45:59.219Z,23.75
2023-01-04T19:48:26.375Z,23.92
2023-01-04T19:51:09.554Z,24.20
2023-01-04T19:53:38.312Z,23.25
2023-01-04T19:56:05.192Z,24.48
2023-01-04T19:58:31.780Z,26.08
2023-01-04T20:00:58.183Z,23.88
2023-01-04T20:03:28.123Z,22.33
2023-01-04T20:05:55.102Z,26.60
2023-01-04T20:08:22.308Z,24.50
2023-01-04T20:10:59.600Z,22.23
2023-01-04T20:13:26.604Z,25.25
2023-01-04T20:15:53.175Z,22.38
2023-01-04T20:18:21.039Z,20.98
2023-01-04T20:20:47.719Z,21.58
2023-01-04T20:23:15.148Z,27.25
2023-01-04T20:25:43.713Z,19.80
2023-01-04T20:28:10.547Z,26.33
2023-01-04T20:30:37.604Z,28.05
2023-01-04T20:33:04.497Z,20.27
2023-01-04T20:35:31.429Z,24.52
2023-01-04T20:37:57.851Z,23.33
2023-01-04T20:40:28.258Z,28.58
2023-01-04T20:43:13.808Z,20.90
2023-01-04T20:45:45.560Z,19.95
2023-01-04T20:48:12.774Z,21.60
2023-01-04T20:50:39.268Z,17.60
2023-01-04T20:53:06.549Z,24.38
2023-01-04T20:55:40.154Z,18.10
2023-01-04T20:58:08.927Z,21.70
2023-01-04T21:00:39.263Z,23.95
2023-01-04T21:03:07.390Z,19.42
2023-01-04T21:05:45.153Z,29.95
2023-01-04T21:08:13.286Z,20.95
2023-01-04T21:10:41.655Z,24.98
2023-01-04T21:13:09.103Z,22.17
2023-01-04T21:15:37.135Z,20.70
2023-01-04T21:18:05.486Z,27.42
2023-01-04T21:20:32.682Z,18.70
2023-01-04T21:22:59.202Z,27.50
2023-01-04T21:25:25.742Z,26.38
2023-01-04T21:27:52.137Z,24.02
2023-01-04T21:30:18.571Z,21.25
2023-01-04T21:32:44.999Z,20.40
2023-01-04T21:35:11.380Z,24.98
2023-01-04T21:37:37.833Z,22.75
2023-01-04T21:40:04.647Z,25.75
2023-01-04T21:42:31.042Z,26.08
2023-01-04T21:44:57.781Z,20.95
2023-01-04T21:47:24.151Z,22.45
2023-01-04T21:49:50.748Z,21.08
2023-01-04T21:52:17.139Z,28.08
2023-01-04T21:54:43.479Z,25.20
2023-01-04T21:57:09.847Z,18.65
2023-01-04T21:59:36.228Z,23.20
2023-01-04T22:02:03.349Z,26.42
2023-01-04T22:04:30.006Z,28.05
2023-01-04T22:06:56.611Z,24.10
2023-01-04T22:09:23.108Z,24.63
2023-01-04T22:11:50.140Z,21.15
2023-01-04T22:14:17.793Z,22.05
2023-01-04T22:16:44.354Z,29.23
2023-01-04T22:19:14.752Z,19.58
2023-01-04T22:21:42.298Z,27.70
2023-01-04T22:24:13.003Z,28.55
2023-01-04T22:26:40.608Z,19.73
2023-01-04T22:29:07.395Z,29.05
2023-01-04T22:31:34.300Z,19.92
2023-01-04T22:34:00.888Z,24.85
2023-01-04T22:36:27.316Z,22.33
2023-01-04T22:38:57.576Z,26.25
2023-01-04T22:41:26.691Z,21.17
2023-01-04T22:43:58.080Z,25.13
2023-01-04T22:46:25.298Z,25.83
2023-01-04T22:48:51.932Z,22.55
2023-01-04T22:51:19.415Z,23.52
2023-01-04T22:53:46.077Z,24.13
2023-01-04T22:56:20.807Z,21.98
2023-01-04T22:58:52.856Z,25.58
2023-01-04T23:01:20.764Z,24.10
2023-01-04T23:03:48.246Z,22.35
2023-01-04T23:06:15.193Z,21.80
2023-01-04T23:08:41.552Z,27.75
2023-01-04T23:11:13.301Z,22.38
2023-01-04T23:13:40.381Z,19.30
2023-01-04T23:16:13.409Z,21.55
2023-01-04T23:18:40.074Z,26.63
2023-01-04T23:21:07.312Z,20.00
2023-01-04T23:23:33.877Z,23.83
2023-01-04T23:26:14.061Z,27.95
2023-01-04T23:28:40.649Z,21.30
2023-01-04T23:31:09.695Z,19.10
2023-01-04T23:33:37.095Z,26.98
2023-01-04T23:36:12.511Z,21.55
2023-01-04T23:38:40.427Z,27.48
2023-01-04T23:41:07.627Z,25.15
2023-01-04T23:43:36.807Z,31.17
2023-01-04T23:46:12.016Z,21.55
2023-01-04T23:48:38.438Z,22.27
2023-01-04T23:51:05.324Z,23.85
2023-01-04T23:53:31.920Z,19.88
2023-01-04T23:56:04.871Z,16.55
2023-01-04T23:58:31.408Z,23.70
